Ana Sayfa
METAR-TAF:

METAR-TAF

Havaalanları :

Chehalis, Washington, Amerika Birleşik Devletleri

Enlem: 46-40-37N, Boylam: 122-58-58W, yükseklik: 54 m

Güncel hava durumu gözlemi

Rapor saat 11:15 UTC de 20 dakika önce yapıldı.
Sakin rüzgar
Sıcaklık 12°C
Nem 100%
Basınç 1014 hPa
Görüş mesafesi: 16.1 km
10000 ft yükseklikte parçalı çok bulutlu

METAR: KCLS 271115Z AUTO 00000KT 10SM BKN100 12/12 A2994 RMK AO2

Saat: 04:35 (11:35 UTC)


TAF: eksik

4.000'den fazla havaalanı için hava durumu gözlemleri ve tahminleri (METAR ve TAF raporları).

Kullanılabilir istasyonlar harita üzerinde sarı ve kırmızı noktalarla gösterilir.

İstasyonun adını görmek için fareyi noktanın üzerinde gezdirin.

Sonrasında hava gözlem ve tahminlerini görmek için tıklayın.

Haritayı değiştirmek için: yaklaştırmak için siyah artı işaretli yeşil düğmeye ve uzaklaştırmak için de eksi işaretli düğmeye hızla tıklayın; bitişik haritalar için yeşil okları kullanın.


METAR-TAF: